createdAt,value
2022-12-09T00:01:13.202Z,83.96
2022-12-09T00:03:43.948Z,83.99
2022-12-09T00:06:16.675Z,83.41
2022-12-09T00:08:45.135Z,83.20
2022-12-09T00:11:14.703Z,82.26
2022-12-09T00:13:42.792Z,84.61
2022-12-09T00:16:13.348Z,84.31
2022-12-09T00:18:41.740Z,84.18
2022-12-09T00:21:14.544Z,83.16
2022-12-09T00:23:42.893Z,82.28
2022-12-09T00:26:11.229Z,80.98
2022-12-09T00:28:41.018Z,82.31
2022-12-09T00:31:09.767Z,82.14
2022-12-09T00:33:37.744Z,81.72
2022-12-09T00:36:14.480Z,80.47
2022-12-09T00:38:43.384Z,81.18
2022-12-09T00:41:12.177Z,82.35
2022-12-09T00:43:42.391Z,82.78
2022-12-09T00:46:11.200Z,82.20
2022-12-09T00:48:39.660Z,83.34
2022-12-09T00:51:08.842Z,83.05
2022-12-09T00:53:36.762Z,82.14
2022-12-09T00:56:04.825Z,81.55
2022-12-09T00:58:35.858Z,81.14
2022-12-09T01:01:05.394Z,82.13
2022-12-09T01:03:33.879Z,82.04
2022-12-09T01:06:02.160Z,82.19
2022-12-09T01:08:32.762Z,82.11
2022-12-09T01:11:01.107Z,82.04
2022-12-09T01:13:29.123Z,81.39
2022-12-09T01:15:57.231Z,82.27
2022-12-09T01:18:26.901Z,81.58
2022-12-09T01:20:58.286Z,82.65
2022-12-09T01:23:26.754Z,84.01
2022-12-09T01:25:54.784Z,84.31
2022-12-09T01:28:22.564Z,83.79
2022-12-09T01:30:50.844Z,83.09
2022-12-09T01:33:18.761Z,85.59
2022-12-09T01:35:48.049Z,85.43
2022-12-09T01:38:17.281Z,84.99
2022-12-09T01:40:47.735Z,84.56
2022-12-09T01:43:19.127Z,83.85
2022-12-09T01:45:47.871Z,84.08
2022-12-09T01:48:19.510Z,83.57
2022-12-09T01:50:53.722Z,83.01
2022-12-09T01:53:26.191Z,83.29
2022-12-09T01:55:59.382Z,82.78
2022-12-09T01:58:29.786Z,82.72
2022-12-09T02:00:57.892Z,83.27
2022-12-09T02:03:25.947Z,83.39
2022-12-09T02:05:55.243Z,83.41
2022-12-09T02:08:23.535Z,82.81
2022-12-09T02:11:06.301Z,82.07
2022-12-09T02:13:48.472Z,80.13
2022-12-09T02:16:21.007Z,82.33
2022-12-09T02:18:54.556Z,83.67
2022-12-09T02:21:29.755Z,84.18
2022-12-09T02:24:04.756Z,83.39
2022-12-09T02:26:42.798Z,83.79
2022-12-09T02:29:37.360Z,83.86
2022-12-09T02:32:43.928Z,84.21
2022-12-09T02:35:24.491Z,83.86
2022-12-09T02:37:59.553Z,82.13
2022-12-09T02:40:34.881Z,81.97
2022-12-09T02:43:07.212Z,81.20
2022-12-09T02:45:38.297Z,81.01
2022-12-09T02:48:07.992Z,81.36
2022-12-09T02:50:39.522Z,82.75
2022-12-09T02:53:11.905Z,84.99
2022-12-09T02:55:44.020Z,83.44
2022-12-09T02:58:12.450Z,84.01
2022-12-09T03:00:41.834Z,83.96
2022-12-09T03:03:16.639Z,84.42
2022-12-09T03:05:52.065Z,82.48
2022-12-09T03:08:29.834Z,83.83
2022-12-09T03:11:01.222Z,83.96
2022-12-09T03:13:43.327Z,84.61
2022-12-09T03:16:18.430Z,83.61
2022-12-09T03:18:50.006Z,82.41
2022-12-09T03:21:23.654Z,84.72
2022-12-09T03:23:54.245Z,84.91
2022-12-09T03:26:23.485Z,83.67
2022-12-09T03:28:54.607Z,84.36
2022-12-09T03:31:28.155Z,83.13
2022-12-09T03:34:03.984Z,83.74
2022-12-09T03:36:37.268Z,83.99
2022-12-09T03:39:09.734Z,82.99
2022-12-09T03:41:42.906Z,81.24
2022-12-09T03:44:17.924Z,83.21
2022-12-09T03:46:47.002Z,84.86
2022-12-09T03:49:15.955Z,84.26
2022-12-09T03:51:49.111Z,83.76
2022-12-09T03:54:23.175Z,85.19
2022-12-09T03:56:54.945Z,84.18
2022-12-09T03:59:24.965Z,84.59
2022-12-09T04:01:53.772Z,84.02
2022-12-09T04:04:22.673Z,84.07
2022-12-09T04:06:54.378Z,83.17
2022-12-09T04:09:23.125Z,83.92
2022-12-09T04:11:51.103Z,83.12
2022-12-09T04:14:19.343Z,82.52
2022-12-09T04:16:47.488Z,81.39
2022-12-09T04:19:15.640Z,81.73
2022-12-09T04:21:44.046Z,82.11
2022-12-09T04:24:13.615Z,85.64
2022-12-09T04:26:41.399Z,85.70
2022-12-09T04:29:10.701Z,85.71
2022-12-09T04:31:38.871Z,84.76
2022-12-09T04:34:09.609Z,84.10
2022-12-09T04:36:39.053Z,84.26
2022-12-09T04:39:07.538Z,86.11
2022-12-09T04:41:37.540Z,87.13
2022-12-09T04:44:05.891Z,85.87
2022-12-09T04:46:34.162Z,85.21
2022-12-09T04:49:02.218Z,84.13
2022-12-09T04:51:35.770Z,83.77
2022-12-09T04:54:07.693Z,83.06
2022-12-09T04:56:36.901Z,81.47
2022-12-09T04:59:06.270Z,82.15
2022-12-09T05:01:37.151Z,81.50
2022-12-09T05:04:05.640Z,82.27
2022-12-09T05:06:33.810Z,81.70
2022-12-09T05:09:04.673Z,84.36
2022-12-09T05:11:33.851Z,84.78
2022-12-09T05:14:03.683Z,85.15
2022-12-09T05:16:31.824Z,84.44
2022-12-09T05:19:01.439Z,83.85
2022-12-09T05:21:30.052Z,83.69
2022-12-09T05:23:59.573Z,83.24
2022-12-09T05:26:27.753Z,82.92
2022-12-09T05:28:56.065Z,83.41
2022-12-09T05:31:25.502Z,83.22
2022-12-09T05:33:54.133Z,82.82
2022-12-09T05:36:25.301Z,82.06
2022-12-09T05:38:54.048Z,82.35
2022-12-09T05:41:23.086Z,82.56
2022-12-09T05:43:54.144Z,83.07
2022-12-09T05:46:22.908Z,84.10
2022-12-09T05:48:52.634Z,84.62
2022-12-09T05:51:25.431Z,85.56
2022-12-09T05:53:54.095Z,85.62
2022-12-09T05:56:24.350Z,85.83
2022-12-09T05:58:54.730Z,85.46
2022-12-09T06:01:23.762Z,83.35
2022-12-09T06:03:55.354Z,84.37
2022-12-09T06:06:26.725Z,84.96
2022-12-09T06:08:57.374Z,85.12
2022-12-09T06:11:26.892Z,84.81
2022-12-09T06:14:00.338Z,83.47
2022-12-09T06:16:30.781Z,84.01
2022-12-09T06:19:00.791Z,83.93
2022-12-09T06:21:29.183Z,84.95
2022-12-09T06:23:57.446Z,85.64
2022-12-09T06:26:27.802Z,85.60
2022-12-09T06:28:57.715Z,85.74
2022-12-09T06:31:26.037Z,84.60
2022-12-09T06:33:56.526Z,84.78
2022-12-09T06:36:28.055Z,85.74
2022-12-09T06:39:04.529Z,85.52
2022-12-09T06:41:33.965Z,85.61
2022-12-09T06:44:02.016Z,84.71
2022-12-09T06:46:30.500Z,84.88
2022-12-09T06:48:58.575Z,85.94
2022-12-09T06:51:28.175Z,86.27
2022-12-09T06:53:56.678Z,85.27
2022-12-09T06:56:27.674Z,85.83
2022-12-09T06:58:56.082Z,85.42
2022-12-09T07:01:26.237Z,85.52
2022-12-09T07:03:58.180Z,86.22
2022-12-09T07:06:29.852Z,85.38
2022-12-09T07:09:01.004Z,83.26
2022-12-09T07:11:29.667Z,84.77
2022-12-09T07:13:58.309Z,84.38
2022-12-09T07:16:26.836Z,84.13
2022-12-09T07:18:55.641Z,84.19
2022-12-09T07:21:25.716Z,85.37
2022-12-09T07:23:55.420Z,85.37
2022-12-09T07:26:25.671Z,85.46
2022-12-09T07:28:53.756Z,86.10
2022-12-09T07:31:23.462Z,85.90
2022-12-09T07:33:52.867Z,85.60
2022-12-09T07:36:22.493Z,86.61
2022-12-09T07:38:51.069Z,86.78
2022-12-09T07:41:20.927Z,86.32
2022-12-09T07:43:51.649Z,85.89
2022-12-09T07:46:21.746Z,85.36
2022-12-09T07:48:51.047Z,84.97
2022-12-09T07:51:19.336Z,84.23
2022-12-09T07:53:48.737Z,83.06
2022-12-09T07:56:18.565Z,83.79
2022-12-09T07:58:49.057Z,86.20
2022-12-09T08:01:19.017Z,86.66
2022-12-09T08:03:48.534Z,85.73
2022-12-09T08:06:19.278Z,86.24
2022-12-09T08:08:47.650Z,85.97
2022-12-09T08:11:18.104Z,85.73
2022-12-09T08:13:48.239Z,85.05
2022-12-09T08:16:19.751Z,85.51
2022-12-09T08:18:48.106Z,85.50
2022-12-09T08:21:21.246Z,85.19
2022-12-09T08:23:50.081Z,83.74
2022-12-09T08:26:21.405Z,84.90
2022-12-09T08:28:51.646Z,84.82
2022-12-09T08:31:24.758Z,85.59
2022-12-09T08:33:55.130Z,85.74
2022-12-09T08:36:26.424Z,85.67
2022-12-09T08:38:55.275Z,85.27
2022-12-09T08:41:35.431Z,83.51
2022-12-09T08:44:07.369Z,83.62
2022-12-09T08:46:37.344Z,83.13
2022-12-09T08:49:06.336Z,82.99
2022-12-09T08:51:35.012Z,83.51
2022-12-09T08:54:06.944Z,82.33
2022-12-09T08:56:35.253Z,83.23
2022-12-09T08:59:05.159Z,84.20
2022-12-09T09:01:35.910Z,83.60
2022-12-09T09:04:07.555Z,83.03
2022-12-09T09:06:36.315Z,82.39
2022-12-09T09:09:05.737Z,82.25
2022-12-09T09:11:34.404Z,82.34
2022-12-09T09:14:06.675Z,81.77
2022-12-09T09:16:39.787Z,81.26
2022-12-09T09:19:08.136Z,82.44
2022-12-09T09:21:36.989Z,81.57
2022-12-09T09:24:10.443Z,80.40
2022-12-09T09:26:41.569Z,81.53
2022-12-09T09:29:12.661Z,82.39
2022-12-09T09:31:40.979Z,83.08
2022-12-09T09:34:09.246Z,82.67
2022-12-09T09:36:37.715Z,81.74
2022-12-09T09:39:06.125Z,81.59
2022-12-09T09:41:45.462Z,81.26
2022-12-09T09:44:23.267Z,81.63
2022-12-09T09:46:52.785Z,80.55
2022-12-09T09:49:30.976Z,81.92
2022-12-09T09:51:59.842Z,82.10
2022-12-09T09:54:28.068Z,80.48
2022-12-09T09:57:02.106Z,80.79
2022-12-09T09:59:42.011Z,81.01
2022-12-09T10:02:19.628Z,81.37
2022-12-09T10:05:04.688Z,81.75
2022-12-09T10:07:40.131Z,81.16
2022-12-09T10:10:22.981Z,78.96
2022-12-09T10:13:09.466Z,78.89
2022-12-09T10:15:50.556Z,78.11
2022-12-09T10:18:28.163Z,78.15
2022-12-09T10:20:57.274Z,78.96
2022-12-09T10:23:27.103Z,80.66
2022-12-09T10:25:59.567Z,79.67
2022-12-09T10:28:31.989Z,79.34
2022-12-09T10:31:01.770Z,81.54
2022-12-09T10:33:31.652Z,80.91
2022-12-09T10:36:00.795Z,78.87
2022-12-09T10:38:31.100Z,79.74
2022-12-09T10:41:03.733Z,80.83
2022-12-09T10:43:36.301Z,80.20
2022-12-09T10:46:18.064Z,79.55
2022-12-09T10:48:54.073Z,78.36
2022-12-09T10:51:25.827Z,78.01
2022-12-09T10:53:57.659Z,79.25
2022-12-09T10:56:29.167Z,80.72
2022-12-09T10:59:11.433Z,79.09
2022-12-09T11:01:51.913Z,78.83
2022-12-09T11:04:26.420Z,81.01
2022-12-09T11:06:59.789Z,79.99
2022-12-09T11:09:30.977Z,79.55
2022-12-09T11:12:00.419Z,79.33
2022-12-09T11:14:33.459Z,80.83
2022-12-09T11:17:16.988Z,79.62
2022-12-09T11:19:49.102Z,80.38
2022-12-09T11:22:39.129Z,79.82
2022-12-09T11:25:20.208Z,78.98
2022-12-09T11:27:52.281Z,79.39
2022-12-09T11:30:22.468Z,79.73
2022-12-09T11:32:58.760Z,80.31
2022-12-09T11:35:32.277Z,80.84
2022-12-09T11:38:14.021Z,80.32
2022-12-09T11:40:44.659Z,78.64
2022-12-09T11:43:12.886Z,78.63
2022-12-09T11:45:41.747Z,78.29
2022-12-09T11:48:34.967Z,80.56
2022-12-09T11:51:07.050Z,78.59
2022-12-09T11:53:40.621Z,77.74
2022-12-09T11:56:18.943Z,79.86
2022-12-09T11:58:51.420Z,81.47
2022-12-09T12:01:26.795Z,81.18
2022-12-09T12:03:57.809Z,79.82
2022-12-09T12:06:30.008Z,81.52
2022-12-09T12:09:03.851Z,81.47
2022-12-09T12:11:39.625Z,81.48
2022-12-09T12:14:16.856Z,79.77
2022-12-09T12:16:53.736Z,78.79
2022-12-09T12:19:30.104Z,81.10
2022-12-09T12:22:27.153Z,80.87
2022-12-09T12:25:24.818Z,78.90
2022-12-09T12:28:19.094Z,79.42
2022-12-09T12:30:55.421Z,79.71
2022-12-09T12:36:40.412Z,80.28
2022-12-09T12:39:22.085Z,80.14
2022-12-09T12:41:56.972Z,80.32
2022-12-09T12:44:54.756Z,79.72
2022-12-09T12:47:26.512Z,80.20
2022-12-09T12:50:11.204Z,80.21
2022-12-09T12:52:56.175Z,81.21
2022-12-09T12:55:42.367Z,80.67
2022-12-09T12:58:18.115Z,81.47
2022-12-09T13:01:01.200Z,80.79
2022-12-09T13:03:37.302Z,79.94
2022-12-09T13:06:06.017Z,80.31
2022-12-09T13:08:42.219Z,79.30
2022-12-09T13:11:16.056Z,79.57
2022-12-09T13:13:47.712Z,81.61
2022-12-09T13:16:20.259Z,80.76
2022-12-09T13:18:50.240Z,80.55
2022-12-09T13:21:18.932Z,80.59
2022-12-09T13:24:03.264Z,80.67
2022-12-09T13:26:42.560Z,81.02
2022-12-09T13:29:23.090Z,80.28
2022-12-09T13:32:00.166Z,80.84
2022-12-09T13:34:37.578Z,81.59
2022-12-09T13:37:06.121Z,81.48
2022-12-09T13:39:59.687Z,82.71
2022-12-09T13:42:52.618Z,83.49
2022-12-09T13:45:27.853Z,82.23
2022-12-09T13:47:56.729Z,83.96
2022-12-09T13:50:27.384Z,82.48
2022-12-09T13:52:57.867Z,83.22
2022-12-09T13:55:37.537Z,83.95
2022-12-09T13:58:27.255Z,85.95
2022-12-09T14:01:17.149Z,85.71
2022-12-09T14:03:55.679Z,84.86
2022-12-09T14:06:26.585Z,84.37
2022-12-09T14:08:57.948Z,83.36
2022-12-09T14:11:52.338Z,85.28
2022-12-09T14:14:56.514Z,87.86
2022-12-09T14:17:59.070Z,85.63
2022-12-09T14:20:30.869Z,87.01
2022-12-09T14:23:19.277Z,86.43
2022-12-09T14:26:07.095Z,87.78
2022-12-09T14:28:52.131Z,87.14
2022-12-09T14:31:44.856Z,87.13
2022-12-09T14:34:27.805Z,87.96
2022-12-09T14:37:05.642Z,87.92
2022-12-09T14:39:39.357Z,87.94
2022-12-09T14:42:14.228Z,87.80
2022-12-09T14:44:52.167Z,86.46
2022-12-09T14:47:24.574Z,87.97
2022-12-09T14:49:54.915Z,87.66
2022-12-09T14:52:29.872Z,87.80
2022-12-09T14:54:59.688Z,88.23
2022-12-09T14:57:33.984Z,87.41
2022-12-09T15:00:05.685Z,87.90
2022-12-09T15:02:37.137Z,89.77
2022-12-09T15:05:17.775Z,89.45
2022-12-09T15:07:46.450Z,88.86
2022-12-09T15:10:21.475Z,89.11
2022-12-09T15:12:52.320Z,90.47
2022-12-09T15:15:24.914Z,91.04
2022-12-09T15:17:56.417Z,91.88
2022-12-09T15:20:28.584Z,92.27
2022-12-09T15:23:01.401Z,93.16
2022-12-09T15:25:29.931Z,91.61
2022-12-09T15:28:00.129Z,92.52
2022-12-09T15:30:35.822Z,91.49
2022-12-09T15:33:04.853Z,89.73
2022-12-09T15:35:34.157Z,89.56
2022-12-09T15:38:05.930Z,90.17
2022-12-09T15:40:36.812Z,91.65
2022-12-09T15:43:11.643Z,91.76
2022-12-09T15:45:44.731Z,90.85
2022-12-09T15:48:18.720Z,90.20
2022-12-09T15:50:50.837Z,89.62
2022-12-09T15:53:24.171Z,89.96
2022-12-09T15:55:57.887Z,90.16
2022-12-09T15:58:30.590Z,90.11
2022-12-09T16:01:00.233Z,89.95
2022-12-09T16:03:30.537Z,89.76
2022-12-09T16:06:02.098Z,89.08
2022-12-09T16:08:34.291Z,88.75
2022-12-09T16:11:02.771Z,88.04
2022-12-09T16:13:30.769Z,87.91
2022-12-09T16:16:01.966Z,87.50
2022-12-09T16:18:34.576Z,87.81
2022-12-09T16:21:20.973Z,88.58
2022-12-09T16:23:52.968Z,88.62
2022-12-09T16:26:28.272Z,87.82
2022-12-09T16:28:59.631Z,87.92
2022-12-09T16:31:29.550Z,88.03
2022-12-09T16:33:58.389Z,88.03
2022-12-09T16:36:29.460Z,87.67
2022-12-09T16:39:42.936Z,87.78
2022-12-09T16:42:22.811Z,87.42
2022-12-09T16:44:51.050Z,88.38
2022-12-09T16:47:24.308Z,87.76
2022-12-09T16:49:52.777Z,88.03
2022-12-09T16:52:24.300Z,87.45
2022-12-09T16:54:52.732Z,87.78
2022-12-09T16:57:21.327Z,87.65
2022-12-09T16:59:50.907Z,86.67
2022-12-09T17:02:32.996Z,87.37
2022-12-09T17:05:03.290Z,87.69
2022-12-09T17:07:31.111Z,88.22
2022-12-09T17:09:59.018Z,87.40
2022-12-09T17:12:27.033Z,86.73
2022-12-09T17:14:54.982Z,87.35
2022-12-09T17:17:24.219Z,87.26
2022-12-09T17:19:52.227Z,87.91
2022-12-09T17:22:20.140Z,87.91
2022-12-09T17:24:48.107Z,87.97
2022-12-09T17:27:18.162Z,86.98
2022-12-09T17:29:46.542Z,87.33
2022-12-09T17:32:16.490Z,87.17
2022-12-09T17:34:45.770Z,87.67
2022-12-09T17:37:13.678Z,87.74
2022-12-09T17:39:41.510Z,87.38
2022-12-09T17:42:09.337Z,88.15
2022-12-09T17:44:37.228Z,88.40
2022-12-09T17:47:09.281Z,87.98
2022-12-09T17:49:38.089Z,88.38
2022-12-09T17:52:07.345Z,89.11
2022-12-09T17:54:35.139Z,89.30
2022-12-09T17:57:02.968Z,89.48
2022-12-09T17:59:30.771Z,88.77
2022-12-09T18:01:59.428Z,88.49
2022-12-09T18:04:27.213Z,88.40
2022-12-09T18:06:54.968Z,88.80
2022-12-09T18:09:24.351Z,88.31
2022-12-09T18:11:52.476Z,87.94
2022-12-09T18:14:22.728Z,88.02
2022-12-09T18:16:50.871Z,88.22
2022-12-09T18:19:20.712Z,87.94
2022-12-09T18:21:49.327Z,87.75
2022-12-09T18:24:17.147Z,87.54
2022-12-09T18:26:46.343Z,88.46
2022-12-09T18:29:14.728Z,89.19
2022-12-09T18:31:45.476Z,88.94
2022-12-09T18:34:13.288Z,89.18
2022-12-09T18:36:43.473Z,89.07
2022-12-09T18:39:11.258Z,87.98
2022-12-09T18:41:39.038Z,88.05
2022-12-09T18:44:08.820Z,87.49
2022-12-09T18:46:38.461Z,87.52
2022-12-09T18:49:08.646Z,86.90
2022-12-09T18:51:37.242Z,87.13
2022-12-09T18:54:06.060Z,87.00
2022-12-09T18:56:34.746Z,86.42
2022-12-09T18:59:07.413Z,86.13
2022-12-09T19:01:40.326Z,86.58
2022-12-09T19:04:13.489Z,86.54
2022-12-09T19:06:42.677Z,86.91
2022-12-09T19:09:12.841Z,86.19
2022-12-09T19:11:42.135Z,85.86
2022-12-09T19:14:10.624Z,86.41
2022-12-09T19:16:40.214Z,87.05
2022-12-09T19:19:10.374Z,86.39
2022-12-09T19:21:42.408Z,86.38
2022-12-09T19:24:15.003Z,86.54
2022-12-09T19:26:45.481Z,85.50
2022-12-09T19:29:14.567Z,86.12
2022-12-09T19:31:45.327Z,85.60
2022-12-09T19:34:17.644Z,86.48
2022-12-09T19:36:46.330Z,86.03
2022-12-09T19:39:15.254Z,86.43
2022-12-09T19:41:44.483Z,86.30
2022-12-09T19:44:21.624Z,86.11
2022-12-09T19:47:03.408Z,85.82
2022-12-09T19:49:31.220Z,86.71
2022-12-09T19:52:00.000Z,85.74
2022-12-09T19:54:29.731Z,86.61
2022-12-09T19:56:59.997Z,87.09
2022-12-09T19:59:28.333Z,87.11
2022-12-09T20:01:56.465Z,86.27
2022-12-09T20:07:18.699Z,86.70
2022-12-09T20:09:46.782Z,86.57
2022-12-09T20:12:17.057Z,85.94
2022-12-09T20:14:44.891Z,87.09
2022-12-09T20:17:12.889Z,87.59
2022-12-09T20:19:42.056Z,87.69
2022-12-09T20:22:09.899Z,87.72
2022-12-09T20:24:37.738Z,87.11
2022-12-09T20:27:05.626Z,87.61
2022-12-09T20:29:37.572Z,86.98
2022-12-09T20:32:06.735Z,87.00
2022-12-09T20:34:34.889Z,86.92
2022-12-09T20:37:04.282Z,86.32
2022-12-09T20:39:32.067Z,85.88
2022-12-09T20:42:00.279Z,86.31
2022-12-09T20:44:32.301Z,86.74
2022-12-09T20:47:00.281Z,86.31
2022-12-09T20:49:29.788Z,87.46
2022-12-09T20:51:57.556Z,87.02
2022-12-09T20:54:26.806Z,87.46
2022-12-09T20:56:54.763Z,87.36
2022-12-09T20:59:22.733Z,87.34
2022-12-09T21:01:50.617Z,87.08
2022-12-09T21:04:21.586Z,86.70
2022-12-09T21:06:49.702Z,86.76
2022-12-09T21:09:21.642Z,86.74
2022-12-09T21:11:51.328Z,87.05
2022-12-09T21:14:20.129Z,87.18
2022-12-09T21:16:50.397Z,88.47
2022-12-09T21:19:25.215Z,88.52
2022-12-09T21:21:53.893Z,88.84
2022-12-09T21:24:24.629Z,88.80
2022-12-09T21:26:55.352Z,88.93
2022-12-09T21:29:29.844Z,88.11
2022-12-09T21:32:00.087Z,90.06
2022-12-09T21:34:27.934Z,90.08
2022-12-09T21:36:55.682Z,89.56
2022-12-09T21:39:23.471Z,88.42
2022-12-09T21:41:51.301Z,88.18
2022-12-09T21:44:22.191Z,89.25
2022-12-09T21:46:49.960Z,88.19
2022-12-09T21:49:17.743Z,88.58
2022-12-09T21:51:45.923Z,88.56
2022-12-09T21:54:13.673Z,87.07
2022-12-09T21:56:41.773Z,86.68
2022-12-09T21:59:11.855Z,87.17
2022-12-09T22:01:42.892Z,87.75
2022-12-09T22:04:12.961Z,87.97
2022-12-09T22:06:46.399Z,87.09
2022-12-09T22:09:14.295Z,85.72
2022-12-09T22:11:42.775Z,85.89
2022-12-09T22:14:11.426Z,85.85
2022-12-09T22:16:43.918Z,86.39
2022-12-09T22:19:17.619Z,88.09
2022-12-09T22:21:45.693Z,87.25
2022-12-09T22:24:15.676Z,86.23
2022-12-09T22:26:45.186Z,87.44
2022-12-09T22:29:14.120Z,87.33
2022-12-09T22:31:44.483Z,87.00
2022-12-09T22:34:14.892Z,86.69
2022-12-09T22:36:43.183Z,85.93
2022-12-09T22:39:13.934Z,86.04
2022-12-09T22:41:41.707Z,85.48
2022-12-09T22:44:11.407Z,85.58
2022-12-09T22:46:39.461Z,85.08
2022-12-09T22:49:09.774Z,84.81
2022-12-09T22:51:37.916Z,84.82
2022-12-09T22:54:09.259Z,86.03
2022-12-09T22:56:38.057Z,85.86
2022-12-09T22:59:06.695Z,85.38
2022-12-09T23:01:37.525Z,84.31
2022-12-09T23:04:08.944Z,84.24
2022-12-09T23:06:38.401Z,84.09
2022-12-09T23:09:07.760Z,84.71
2022-12-09T23:11:35.989Z,84.49
2022-12-09T23:14:04.134Z,84.05
2022-12-09T23:16:32.095Z,84.62
2022-12-09T23:19:00.407Z,84.75
2022-12-09T23:21:32.166Z,85.51
2022-12-09T23:24:02.241Z,85.63
2022-12-09T23:26:32.615Z,86.10
2022-12-09T23:29:01.981Z,85.32
2022-12-09T23:31:31.976Z,85.71
2022-12-09T23:34:00.755Z,85.76
2022-12-09T23:36:32.393Z,85.70
2022-12-09T23:39:01.723Z,86.21
2022-12-09T23:41:30.307Z,86.69
2022-12-09T23:43:58.495Z,86.63
2022-12-09T23:46:29.082Z,86.76
2022-12-09T23:48:58.026Z,86.56
2022-12-09T23:51:27.783Z,86.50
2022-12-09T23:53:58.851Z,86.46
2022-12-09T23:56:30.193Z,86.84
2022-12-09T23:59:00.350Z,86.57
